createdAt,value
2023-10-07T00:00:26.641Z,22.70
2023-10-07T00:02:58.287Z,22.67
2023-10-07T00:05:49.009Z,22.72
2023-10-07T00:08:29.259Z,22.70
2023-10-07T00:11:02.713Z,22.69
2023-10-07T00:13:35.921Z,22.68
2023-10-07T00:16:06.696Z,22.70
2023-10-07T00:18:37.735Z,22.68
2023-10-07T00:21:07.414Z,22.69
2023-10-07T00:23:38.236Z,22.69
2023-10-07T00:26:11.926Z,22.70
2023-10-07T00:28:41.613Z,22.70
2023-10-07T00:31:25.638Z,22.71
2023-10-07T00:34:00.230Z,22.69
2023-10-07T00:36:44.669Z,22.70
2023-10-07T00:39:22.769Z,22.69
2023-10-07T00:42:01.355Z,22.70
2023-10-07T00:44:38.397Z,22.70
2023-10-07T00:47:08.245Z,22.77
2023-10-07T00:49:58.829Z,22.71
2023-10-07T00:52:28.542Z,22.71
2023-10-07T00:55:07.715Z,22.75
2023-10-07T00:57:38.375Z,22.70
2023-10-07T01:00:37.555Z,22.73
2023-10-07T01:03:20.261Z,22.77
2023-10-07T01:06:02.117Z,22.79
2023-10-07T01:09:00.648Z,22.78
2023-10-07T01:11:32.980Z,22.76
2023-10-07T01:14:02.900Z,22.80
2023-10-07T01:16:43.452Z,22.87
2023-10-07T01:19:22.314Z,22.80
2023-10-07T01:21:54.408Z,22.83
2023-10-07T01:24:47.453Z,22.79
2023-10-07T01:27:32.557Z,22.83
2023-10-07T01:30:31.219Z,22.86
2023-10-07T01:33:05.440Z,22.85
2023-10-07T01:35:42.493Z,22.85
2023-10-07T01:38:12.224Z,22.85
2023-10-07T01:41:04.371Z,22.85
2023-10-07T01:43:34.181Z,22.85
2023-10-07T01:46:10.367Z,22.85
2023-10-07T01:48:52.393Z,22.81
2023-10-07T01:51:22.103Z,22.81
2023-10-07T01:53:52.649Z,22.85
2023-10-07T01:56:22.392Z,22.87
2023-10-07T01:58:53.007Z,22.87
2023-10-07T02:01:24.602Z,22.87
2023-10-07T02:03:54.473Z,22.88
2023-10-07T02:06:24.936Z,22.88
2023-10-07T02:08:54.781Z,22.94
2023-10-07T02:11:33.836Z,22.92
2023-10-07T02:14:03.559Z,22.91
2023-10-07T02:16:37.252Z,22.89
2023-10-07T02:19:07.126Z,22.89
2023-10-07T02:21:36.938Z,22.88
2023-10-07T02:24:11.866Z,22.87
2023-10-07T02:26:45.943Z,22.89
2023-10-07T02:29:16.631Z,22.89
2023-10-07T02:31:46.342Z,22.94
2023-10-07T02:34:31.119Z,22.94
2023-10-07T02:37:15.462Z,22.93
2023-10-07T02:39:52.637Z,22.90
2023-10-07T02:42:26.681Z,22.94
2023-10-07T02:45:23.121Z,22.94
2023-10-07T02:47:53.144Z,22.92
2023-10-07T02:50:23.148Z,22.93
2023-10-07T02:52:52.957Z,22.91
2023-10-07T02:55:22.628Z,22.92
2023-10-07T02:57:58.812Z,22.93
2023-10-07T03:00:41.286Z,22.96
2023-10-07T03:03:29.065Z,22.94
2023-10-07T03:06:01.771Z,22.96
2023-10-07T03:08:43.645Z,22.97
2023-10-07T03:11:23.947Z,22.97
2023-10-07T03:13:59.796Z,22.96
2023-10-07T03:16:48.520Z,23.01
2023-10-07T03:19:25.240Z,22.99
2023-10-07T03:21:58.349Z,23.01
2023-10-07T03:24:51.366Z,23.02
2023-10-07T03:27:25.273Z,23.02
2023-10-07T03:30:15.449Z,23.00
2023-10-07T03:32:57.263Z,23.04
2023-10-07T03:35:39.018Z,23.01
2023-10-07T03:38:11.087Z,23.02
2023-10-07T03:40:41.045Z,23.07
2023-10-07T03:43:11.661Z,23.03
2023-10-07T03:45:42.398Z,23.06
2023-10-07T03:48:25.679Z,23.05
2023-10-07T03:51:15.359Z,23.05
2023-10-07T03:53:48.047Z,23.01
2023-10-07T03:56:17.960Z,23.05
2023-10-07T03:58:47.734Z,23.05
2023-10-07T04:01:20.981Z,23.07
2023-10-07T04:03:53.780Z,23.04
2023-10-07T04:06:30.216Z,23.05
2023-10-07T04:09:20.870Z,23.08
2023-10-07T04:11:53.621Z,23.05
2023-10-07T04:14:30.288Z,23.06
2023-10-07T04:17:06.949Z,23.05
2023-10-07T04:19:50.304Z,23.07
2023-10-07T04:22:20.085Z,23.04
2023-10-07T04:24:49.729Z,23.06
2023-10-07T04:27:23.145Z,23.07
2023-10-07T04:29:54.977Z,23.08
2023-10-07T04:32:25.330Z,23.08
2023-10-07T04:35:22.173Z,23.07
2023-10-07T04:37:57.713Z,23.05
2023-10-07T04:40:27.345Z,23.08
2023-10-07T04:43:22.537Z,23.11
2023-10-07T04:45:52.304Z,23.10
2023-10-07T04:48:34.552Z,23.11
2023-10-07T04:51:07.169Z,23.10
2023-10-07T04:53:43.155Z,23.11
2023-10-07T04:56:20.997Z,23.12
2023-10-07T04:58:50.766Z,23.11
2023-10-07T05:01:35.875Z,23.15
2023-10-07T05:04:12.969Z,23.12
2023-10-07T05:06:45.590Z,23.13
2023-10-07T05:09:20.930Z,23.13
2023-10-07T05:11:50.333Z,22.95
2023-10-07T05:14:24.861Z,23.07
2023-10-07T05:16:55.136Z,23.10
2023-10-07T05:19:29.828Z,23.10
2023-10-07T05:22:03.383Z,23.12
2023-10-07T05:24:33.154Z,23.12
2023-10-07T05:27:03.091Z,23.14
2023-10-07T05:29:33.375Z,23.18
2023-10-07T05:32:03.777Z,23.14
2023-10-07T05:34:33.570Z,23.20
2023-10-07T05:37:13.593Z,23.18
2023-10-07T05:39:43.853Z,23.12
2023-10-07T05:42:16.549Z,23.19
2023-10-07T05:44:46.338Z,23.16
2023-10-07T05:47:16.071Z,23.14
2023-10-07T05:49:46.328Z,23.18
2023-10-07T05:52:15.973Z,23.14
2023-10-07T05:54:46.312Z,23.16
2023-10-07T05:57:16.001Z,23.16
2023-10-07T05:59:45.833Z,23.16
2023-10-07T06:02:17.808Z,23.16
2023-10-07T06:04:47.554Z,23.17
2023-10-07T06:07:17.621Z,23.13
2023-10-07T06:09:47.276Z,23.16
2023-10-07T06:12:18.636Z,23.13
2023-10-07T06:14:48.371Z,23.15
2023-10-07T06:17:18.099Z,23.16
2023-10-07T06:19:48.193Z,23.14
2023-10-07T06:22:18.855Z,23.13
2023-10-07T06:24:54.811Z,23.16
2023-10-07T06:27:24.591Z,23.10
2023-10-07T06:29:54.291Z,23.12
2023-10-07T06:32:28.615Z,23.14
2023-10-07T06:34:59.503Z,23.15
2023-10-07T06:37:32.412Z,23.16
2023-10-07T06:40:03.617Z,23.13
2023-10-07T06:42:33.418Z,23.12
2023-10-07T06:45:11.532Z,23.18
2023-10-07T06:47:41.455Z,23.16
2023-10-07T06:50:19.784Z,23.14
2023-10-07T06:52:52.257Z,23.17
2023-10-07T06:55:21.965Z,23.13
2023-10-07T06:57:51.715Z,23.13
2023-10-07T07:00:30.481Z,23.14
2023-10-07T07:03:00.534Z,23.15
2023-10-07T07:05:30.803Z,23.14
2023-10-07T07:08:06.473Z,23.19
2023-10-07T07:10:36.242Z,23.16
2023-10-07T07:13:15.836Z,23.18
2023-10-07T07:15:46.549Z,23.18
2023-10-07T07:18:16.250Z,23.11
2023-10-07T07:20:52.698Z,23.15
2023-10-07T07:23:28.035Z,23.15
2023-10-07T07:26:06.193Z,22.94
2023-10-07T07:28:37.122Z,23.10
2023-10-07T07:31:13.461Z,23.11
2023-10-07T07:33:44.291Z,23.11
2023-10-07T07:36:32.044Z,23.15
2023-10-07T07:39:01.758Z,23.14
2023-10-07T07:41:37.537Z,23.14
2023-10-07T07:44:14.685Z,23.11
2023-10-07T07:46:57.610Z,23.11
2023-10-07T07:49:30.648Z,23.11
2023-10-07T07:52:00.917Z,23.11
2023-10-07T07:54:31.879Z,23.09
2023-10-07T07:57:06.888Z,23.10
2023-10-07T07:59:36.636Z,23.07
2023-10-07T08:02:15.414Z,23.12
2023-10-07T08:04:51.507Z,23.10
2023-10-07T08:07:23.876Z,23.08
2023-10-07T08:09:58.083Z,23.09
2023-10-07T08:12:31.411Z,23.09
2023-10-07T08:15:01.625Z,23.08
2023-10-07T08:17:31.574Z,23.09
2023-10-07T08:20:01.377Z,23.08
2023-10-07T08:22:31.109Z,23.06
2023-10-07T08:25:03.569Z,23.05
2023-10-07T08:27:52.141Z,23.07
2023-10-07T08:30:41.912Z,23.04
2023-10-07T08:33:15.140Z,23.04
2023-10-07T08:35:50.599Z,23.06
2023-10-07T08:38:23.497Z,22.86
2023-10-07T08:41:10.182Z,23.01
2023-10-07T08:44:06.322Z,23.02
2023-10-07T08:46:40.102Z,22.98
2023-10-07T08:49:18.064Z,23.03
2023-10-07T08:51:47.727Z,23.07
2023-10-07T08:54:43.290Z,23.04
2023-10-07T08:57:18.271Z,23.02
2023-10-07T08:59:57.161Z,23.01
2023-10-07T09:02:29.882Z,23.03
2023-10-07T09:05:08.790Z,23.02
2023-10-07T09:07:39.509Z,23.02
2023-10-07T09:10:20.062Z,23.02
2023-10-07T09:12:52.329Z,22.99
2023-10-07T09:15:28.744Z,23.01
2023-10-07T09:18:08.614Z,23.01
2023-10-07T09:20:46.521Z,23.01
2023-10-07T09:23:24.947Z,23.00
2023-10-07T09:25:58.076Z,23.01
2023-10-07T09:28:39.173Z,23.01
2023-10-07T09:31:09.474Z,23.00
2023-10-07T09:33:44.395Z,22.98
2023-10-07T09:36:29.174Z,22.98
2023-10-07T09:39:34.173Z,22.99
2023-10-07T09:42:28.090Z,22.99
2023-10-07T09:45:10.865Z,22.99
2023-10-07T09:47:44.774Z,22.96
2023-10-07T09:50:43.483Z,22.99
2023-10-07T09:53:25.269Z,22.96
2023-10-07T09:56:00.127Z,22.95
2023-10-07T09:59:02.797Z,22.91
2023-10-07T10:02:28.473Z,22.92
2023-10-07T10:05:14.274Z,22.97
2023-10-07T10:08:15.864Z,22.92
2023-10-07T10:10:48.283Z,22.96
2023-10-07T10:13:42.728Z,22.94
2023-10-07T10:16:47.139Z,22.96
2023-10-07T10:19:50.671Z,22.95
2023-10-07T10:22:26.802Z,22.95
2023-10-07T10:25:19.013Z,22.94
2023-10-07T10:27:50.236Z,22.93
2023-10-07T10:30:26.233Z,22.96
2023-10-07T10:32:57.350Z,22.93
2023-10-07T10:35:27.939Z,22.93
2023-10-07T10:38:01.231Z,22.93
2023-10-07T10:40:34.525Z,22.96
2023-10-07T10:43:04.279Z,22.95
2023-10-07T10:45:33.885Z,22.96
2023-10-07T10:48:04.617Z,22.95
2023-10-07T10:50:35.029Z,22.97
2023-10-07T10:53:04.836Z,22.98
2023-10-07T10:55:37.929Z,22.96
2023-10-07T10:58:19.699Z,22.95
2023-10-07T11:00:53.954Z,22.94
2023-10-07T11:03:23.974Z,22.96
2023-10-07T11:06:00.416Z,22.96
2023-10-07T11:08:31.332Z,22.98
2023-10-07T11:11:01.300Z,23.00
2023-10-07T11:13:34.759Z,22.98
2023-10-07T11:16:13.121Z,22.96
2023-10-07T11:18:47.875Z,23.01
2023-10-07T11:21:20.800Z,22.96
2023-10-07T11:23:56.586Z,23.00
2023-10-07T11:26:27.650Z,23.01
2023-10-07T11:28:59.095Z,23.00
2023-10-07T11:31:33.229Z,22.98
2023-10-07T11:34:04.505Z,23.02
2023-10-07T11:36:48.187Z,22.97
2023-10-07T11:39:18.141Z,23.00
2023-10-07T11:41:49.785Z,22.99
2023-10-07T11:44:22.466Z,23.00
2023-10-07T11:46:53.562Z,23.00
2023-10-07T11:49:24.658Z,23.02
2023-10-07T11:51:54.326Z,23.05
2023-10-07T11:54:26.872Z,23.01
2023-10-07T11:56:56.584Z,23.00
2023-10-07T11:59:26.350Z,23.03
2023-10-07T12:01:57.373Z,23.03
2023-10-07T12:04:29.330Z,23.02
2023-10-07T12:06:59.107Z,23.02
2023-10-07T12:09:30.498Z,23.03
2023-10-07T12:12:02.458Z,23.01
2023-10-07T12:14:35.800Z,22.99
2023-10-07T12:17:07.730Z,23.02
2023-10-07T12:19:39.234Z,22.99
2023-10-07T12:22:09.518Z,23.00
2023-10-07T12:24:40.199Z,22.95
2023-10-07T12:27:09.902Z,22.96
2023-10-07T12:29:41.725Z,22.97
2023-10-07T12:32:12.718Z,22.97
2023-10-07T12:34:50.291Z,22.98
2023-10-07T12:37:20.313Z,23.00
2023-10-07T12:39:51.894Z,23.00
2023-10-07T12:42:21.621Z,22.98
2023-10-07T12:44:51.254Z,22.98
2023-10-07T12:47:21.364Z,22.99
2023-10-07T12:49:54.692Z,22.96
2023-10-07T12:52:27.184Z,23.00
2023-10-07T12:54:57.967Z,22.99
2023-10-07T12:57:31.367Z,22.96
2023-10-07T13:00:01.094Z,22.96
2023-10-07T13:02:31.722Z,22.97
2023-10-07T13:05:01.586Z,22.99
2023-10-07T13:07:31.891Z,23.01
2023-10-07T13:10:03.656Z,23.00
2023-10-07T13:12:35.797Z,23.02
2023-10-07T13:15:05.943Z,22.99
2023-10-07T13:17:36.059Z,22.97
2023-10-07T13:20:09.972Z,23.00
2023-10-07T13:22:40.688Z,23.00
2023-10-07T13:25:12.279Z,22.98
2023-10-07T13:27:42.511Z,22.98
2023-10-07T13:30:16.147Z,23.00
2023-10-07T13:32:49.673Z,22.99
2023-10-07T13:35:20.442Z,22.99
2023-10-07T13:37:54.213Z,22.99
2023-10-07T13:40:24.222Z,22.94
2023-10-07T13:42:57.480Z,22.98
2023-10-07T13:45:28.005Z,22.95
2023-10-07T13:47:58.399Z,22.96
2023-10-07T13:50:31.094Z,22.95
2023-10-07T13:53:00.988Z,22.96
2023-10-07T13:55:36.897Z,22.96
2023-10-07T13:58:07.677Z,22.96
2023-10-07T14:00:37.480Z,22.98
2023-10-07T14:03:22.285Z,23.00
2023-10-07T14:05:54.034Z,22.94
2023-10-07T14:08:25.154Z,23.00
2023-10-07T14:10:58.701Z,22.96
2023-10-07T14:13:32.735Z,22.98
2023-10-07T14:16:18.081Z,22.96
2023-10-07T14:18:48.466Z,22.98
2023-10-07T14:21:19.763Z,22.96
2023-10-07T14:23:50.974Z,22.97
2023-10-07T14:26:20.727Z,22.95
2023-10-07T14:28:50.570Z,23.00
2023-10-07T14:31:20.304Z,23.02
2023-10-07T14:33:50.276Z,23.00
2023-10-07T14:36:24.152Z,22.99
2023-10-07T14:38:56.816Z,22.96
2023-10-07T14:41:29.106Z,22.95
2023-10-07T14:44:01.896Z,22.94
2023-10-07T14:46:31.621Z,22.97
2023-10-07T14:49:01.366Z,22.96
2023-10-07T14:51:32.720Z,22.99
2023-10-07T14:54:02.780Z,22.96
2023-10-07T14:56:32.683Z,22.99
2023-10-07T14:59:02.541Z,23.00
2023-10-07T15:01:34.110Z,23.00
2023-10-07T15:04:05.614Z,22.99
2023-10-07T15:06:36.291Z,22.96
2023-10-07T15:09:10.668Z,23.00
2023-10-07T15:11:41.062Z,22.97
2023-10-07T15:14:11.679Z,22.99
2023-10-07T15:16:41.366Z,22.95
2023-10-07T15:19:14.160Z,22.94
2023-10-07T15:21:43.989Z,22.93
2023-10-07T15:24:16.108Z,22.95
2023-10-07T15:26:46.090Z,22.94
2023-10-07T15:29:15.892Z,22.96
2023-10-07T15:31:46.471Z,22.98
2023-10-07T15:34:16.989Z,23.01
2023-10-07T15:36:47.549Z,22.99
2023-10-07T15:39:20.369Z,22.94
2023-10-07T15:41:50.028Z,22.94
2023-10-07T15:44:20.162Z,22.93
2023-10-07T15:46:50.334Z,22.95
2023-10-07T15:49:20.539Z,22.95
2023-10-07T15:51:50.211Z,22.93
2023-10-07T15:54:19.913Z,22.95
2023-10-07T15:56:49.752Z,22.94
2023-10-07T15:59:19.704Z,22.94
2023-10-07T16:01:52.341Z,22.96
2023-10-07T16:04:23.549Z,22.94
2023-10-07T16:06:53.359Z,22.96
2023-10-07T16:09:22.997Z,22.96
2023-10-07T16:11:52.778Z,22.98
2023-10-07T16:14:23.654Z,22.95
2023-10-07T16:16:55.764Z,22.93
2023-10-07T16:19:25.573Z,22.96
2023-10-07T16:21:55.281Z,22.94
2023-10-07T16:24:24.967Z,22.99
2023-10-07T16:26:54.647Z,22.96
2023-10-07T16:29:24.353Z,22.97
2023-10-07T16:31:56.125Z,22.96
2023-10-07T16:34:26.032Z,22.95
2023-10-07T16:36:55.767Z,22.93
2023-10-07T16:39:26.300Z,22.96
2023-10-07T16:41:57.168Z,22.96
2023-10-07T16:44:27.747Z,22.92
2023-10-07T16:46:57.434Z,22.92
2023-10-07T16:49:27.329Z,22.96
2023-10-07T16:51:57.058Z,22.95
2023-10-07T16:54:26.712Z,22.95
2023-10-07T16:56:56.453Z,22.94
2023-10-07T16:59:26.459Z,22.95
2023-10-07T17:01:58.752Z,22.93
2023-10-07T17:04:28.478Z,22.93
2023-10-07T17:06:58.141Z,22.93
2023-10-07T17:09:27.851Z,22.92
2023-10-07T17:11:57.514Z,22.94
2023-10-07T17:14:27.285Z,22.92
2023-10-07T17:16:57.387Z,22.93
2023-10-07T17:19:32.397Z,22.94
2023-10-07T17:22:02.562Z,22.91
2023-10-07T17:24:32.225Z,22.95
2023-10-07T17:27:02.304Z,22.96
2023-10-07T17:29:32.586Z,22.95
2023-10-07T17:32:02.871Z,22.94
2023-10-07T17:34:33.192Z,22.96
2023-10-07T17:37:03.626Z,22.94
2023-10-07T17:39:33.552Z,22.95
2023-10-07T17:42:03.323Z,22.93
2023-10-07T17:44:33.022Z,22.93
2023-10-07T17:47:02.676Z,22.93
2023-10-07T17:49:32.406Z,22.94
2023-10-07T17:52:03.702Z,22.92
2023-10-07T17:54:34.298Z,22.95
2023-10-07T17:57:04.002Z,22.95
2023-10-07T17:59:33.707Z,22.94
2023-10-07T18:02:03.579Z,22.92
2023-10-07T18:04:34.955Z,22.91
2023-10-07T18:07:04.723Z,22.95
2023-10-07T18:09:34.391Z,22.94
2023-10-07T18:12:04.109Z,22.92
2023-10-07T18:14:35.208Z,22.93
2023-10-07T18:17:06.272Z,22.94
2023-10-07T18:19:35.950Z,22.96
2023-10-07T18:22:05.708Z,22.94
2023-10-07T18:24:35.820Z,22.94
2023-10-07T18:27:05.599Z,22.94
2023-10-07T18:29:35.345Z,22.94
2023-10-07T18:32:05.140Z,22.92
2023-10-07T18:34:36.137Z,22.93
2023-10-07T18:37:05.846Z,22.93
2023-10-07T18:39:36.390Z,22.92
2023-10-07T18:42:07.509Z,22.93
2023-10-07T18:44:37.261Z,22.92
2023-10-07T18:47:07.067Z,22.96
2023-10-07T18:49:37.406Z,22.95
2023-10-07T18:52:07.198Z,22.95
2023-10-07T18:54:38.281Z,22.92
2023-10-07T18:57:07.971Z,22.92
2023-10-07T18:59:37.703Z,22.96
2023-10-07T19:02:07.644Z,22.93
2023-10-07T19:04:37.371Z,22.94
2023-10-07T19:07:07.053Z,22.95
2023-10-07T19:09:39.831Z,22.92
2023-10-07T19:12:09.654Z,22.92
2023-10-07T19:14:39.335Z,22.92
2023-10-07T19:17:09.074Z,22.93
2023-10-07T19:19:39.467Z,22.93
2023-10-07T19:22:09.168Z,22.96
2023-10-07T19:24:38.977Z,22.93
2023-10-07T19:27:08.653Z,22.93
2023-10-07T19:29:38.579Z,22.94
2023-10-07T19:32:08.441Z,22.94
2023-10-07T19:34:38.150Z,22.93
2023-10-07T19:37:11.822Z,22.96
2023-10-07T19:39:44.453Z,22.93
2023-10-07T19:42:14.730Z,22.95
2023-10-07T19:44:44.462Z,22.89
2023-10-07T19:47:14.252Z,22.92
2023-10-07T19:49:44.144Z,22.93
2023-10-07T19:52:15.394Z,22.93
2023-10-07T19:54:45.130Z,22.96
2023-10-07T19:57:15.018Z,22.93
2023-10-07T19:59:44.761Z,22.95
2023-10-07T20:02:14.693Z,22.93
2023-10-07T20:04:45.856Z,22.91
2023-10-07T20:07:16.660Z,22.92
2023-10-07T20:09:46.311Z,22.95
2023-10-07T20:12:16.680Z,22.92
2023-10-07T20:14:47.232Z,22.94
2023-10-07T20:17:17.025Z,22.93
2023-10-07T20:19:46.847Z,22.92
2023-10-07T20:22:16.886Z,22.93
2023-10-07T20:24:46.787Z,22.93
2023-10-07T20:27:16.622Z,22.94
2023-10-07T20:29:49.012Z,22.92
2023-10-07T20:32:18.723Z,22.92
2023-10-07T20:34:48.506Z,22.93
2023-10-07T20:37:19.568Z,22.91
2023-10-07T20:39:50.357Z,22.89
2023-10-07T20:42:20.044Z,22.91
2023-10-07T20:44:49.656Z,22.93
2023-10-07T20:47:19.641Z,22.92
2023-10-07T20:49:49.401Z,22.91
2023-10-07T20:52:19.333Z,22.91
2023-10-07T20:54:49.009Z,22.92
2023-10-07T20:57:18.726Z,22.95
2023-10-07T20:59:48.509Z,22.95
2023-10-07T21:02:18.240Z,22.92
2023-10-07T21:04:47.972Z,22.94
2023-10-07T21:07:17.636Z,22.93
2023-10-07T21:09:47.305Z,22.95
2023-10-07T21:12:17.038Z,22.93
2023-10-07T21:14:47.061Z,22.92
2023-10-07T21:17:18.145Z,22.92
2023-10-07T21:19:48.366Z,22.93
2023-10-07T21:22:18.042Z,22.92
2023-10-07T21:24:47.764Z,22.90
2023-10-07T21:27:17.432Z,22.90
2023-10-07T21:29:47.173Z,22.90
2023-10-07T21:32:16.990Z,22.90
2023-10-07T21:34:46.800Z,22.88
2023-10-07T21:37:16.490Z,22.89
2023-10-07T21:39:47.476Z,22.91
2023-10-07T21:42:17.212Z,22.89
2023-10-07T21:44:47.082Z,22.91
2023-10-07T21:47:16.818Z,22.89
2023-10-07T21:49:46.611Z,22.87
2023-10-07T21:52:16.283Z,22.93
2023-10-07T21:54:47.020Z,22.91
2023-10-07T21:57:16.660Z,22.92
2023-10-07T21:59:46.758Z,22.92
2023-10-07T22:02:16.624Z,22.89
2023-10-07T22:04:46.375Z,22.90
2023-10-07T22:07:16.000Z,22.91
2023-10-07T22:09:45.641Z,22.95
2023-10-07T22:12:16.610Z,22.93
2023-10-07T22:14:46.659Z,22.92
2023-10-07T22:17:16.881Z,22.92
2023-10-07T22:19:46.826Z,22.93
2023-10-07T22:22:16.823Z,22.90
2023-10-07T22:24:47.932Z,22.91
2023-10-07T22:27:19.806Z,22.93
2023-10-07T22:29:51.167Z,22.94
2023-10-07T22:32:24.981Z,22.92
2023-10-07T22:34:59.680Z,22.93
2023-10-07T22:37:29.394Z,22.87
2023-10-07T22:39:59.698Z,22.90
2023-10-07T22:42:37.301Z,22.93
2023-10-07T22:45:13.853Z,22.94
2023-10-07T22:47:43.822Z,22.95
2023-10-07T22:50:20.849Z,22.93
2023-10-07T22:52:57.513Z,22.92
2023-10-07T22:55:39.087Z,22.92
2023-10-07T22:58:11.919Z,22.95
2023-10-07T23:01:01.667Z,22.92
2023-10-07T23:03:36.885Z,22.93
2023-10-07T23:06:17.895Z,22.93
2023-10-07T23:09:10.232Z,22.93
2023-10-07T23:11:47.275Z,22.93
2023-10-07T23:14:25.909Z,22.92
2023-10-07T23:16:56.713Z,22.94
2023-10-07T23:19:29.358Z,22.96
2023-10-07T23:21:58.978Z,22.95
2023-10-07T23:24:37.545Z,22.97
2023-10-07T23:27:11.577Z,22.95
2023-10-07T23:29:47.183Z,22.94
2023-10-07T23:32:21.349Z,22.94
2023-10-07T23:34:56.140Z,22.94
2023-10-07T23:37:33.003Z,22.94
2023-10-07T23:40:15.495Z,22.98
2023-10-07T23:42:46.582Z,22.96
2023-10-07T23:45:16.355Z,22.98
2023-10-07T23:47:48.740Z,23.00
2023-10-07T23:50:19.163Z,22.99
2023-10-07T23:52:48.916Z,23.01
2023-10-07T23:55:31.183Z,22.98
2023-10-07T23:58:09.606Z,22.98
